createdAt,value
2024-04-22T00:02:13.496Z,6.65
2024-04-22T00:07:17.329Z,6.77
2024-04-22T00:12:20.918Z,4.57
2024-04-22T00:17:24.445Z,3.40
2024-04-22T00:22:27.982Z,3.50
2024-04-22T00:27:31.516Z,3.85
2024-04-22T00:32:35.002Z,2.93
2024-04-22T00:37:38.679Z,3.45
2024-04-22T00:42:45.258Z,3.13
2024-04-22T00:47:48.961Z,3.03
2024-04-22T00:52:53.331Z,3.10
2024-04-22T00:58:00.510Z,3.10
2024-04-22T01:03:05.077Z,2.42
2024-04-22T01:08:08.569Z,2.30
2024-04-22T01:13:12.326Z,2.63
2024-04-22T01:18:19.316Z,2.90
2024-04-22T01:23:22.788Z,2.80
2024-04-22T01:28:26.183Z,2.88
2024-04-22T01:33:29.543Z,2.97
2024-04-22T01:38:33.001Z,2.40
2024-04-22T01:43:37.561Z,2.60
2024-04-22T01:48:40.998Z,4.77
2024-04-22T01:53:44.728Z,3.55
2024-04-22T01:58:50.754Z,3.77
2024-04-22T02:03:54.328Z,4.65
2024-04-22T02:08:57.698Z,3.92
2024-04-22T02:14:01.326Z,3.50
2024-04-22T02:19:06.570Z,3.20
2024-04-22T02:24:09.832Z,4.13
2024-04-22T02:29:13.333Z,3.63
2024-04-22T02:34:16.841Z,3.25
2024-04-22T02:39:20.216Z,3.80
2024-04-22T02:44:23.578Z,3.10
2024-04-22T02:49:27.053Z,3.40
2024-04-22T02:54:33.181Z,3.00
2024-04-22T02:59:36.795Z,3.40
2024-04-22T03:04:40.423Z,3.40
2024-04-22T03:09:44.514Z,3.50
2024-04-22T03:14:47.865Z,3.87
2024-04-22T03:19:54.635Z,3.80
2024-04-22T03:24:57.961Z,3.70
2024-04-22T03:30:01.396Z,2.60
2024-04-22T03:35:05.095Z,3.05
2024-04-22T03:40:09.298Z,3.57
2024-04-22T03:45:12.829Z,3.22
2024-04-22T03:50:16.290Z,2.72
2024-04-22T03:55:19.601Z,2.77
2024-04-22T04:00:23.111Z,2.53
2024-04-22T04:05:26.540Z,3.17
2024-04-22T04:10:30.270Z,3.08
2024-04-22T04:15:35.110Z,3.10
2024-04-22T04:20:38.461Z,2.37
2024-04-22T04:25:42.205Z,3.00
2024-04-22T04:30:58.106Z,3.30
2024-04-22T04:36:06.306Z,2.75
2024-04-22T04:41:09.839Z,2.30
2024-04-22T04:46:13.216Z,2.80
2024-04-22T04:51:16.558Z,3.55
2024-04-22T04:56:19.898Z,3.13
2024-04-22T05:01:24.947Z,3.00
2024-04-22T05:06:28.549Z,2.20
2024-04-22T05:11:32.250Z,2.90
2024-04-22T05:16:35.549Z,2.38
2024-04-22T05:21:39.041Z,3.07
2024-04-22T05:26:42.269Z,1.92
2024-04-22T05:31:45.732Z,3.15
2024-04-22T05:36:49.125Z,3.93
2024-04-22T05:41:52.620Z,3.75
2024-04-22T05:46:55.969Z,3.80
2024-04-22T05:52:00.825Z,4.72
2024-04-22T05:57:05.716Z,4.05
2024-04-22T06:02:09.630Z,4.27
2024-04-22T06:07:13.505Z,4.32
2024-04-22T06:12:19.698Z,5.40
2024-04-22T06:17:23.666Z,4.22
2024-04-22T06:22:27.104Z,3.20
2024-04-22T06:27:30.400Z,3.33
2024-04-22T06:32:37.611Z,3.75
2024-04-22T06:37:41.314Z,3.43
2024-04-22T06:42:45.138Z,3.25
2024-04-22T06:47:48.468Z,3.58
2024-04-22T06:52:51.899Z,2.87
2024-04-22T06:57:55.472Z,3.17
2024-04-22T07:02:58.966Z,4.43
2024-04-22T07:08:02.474Z,4.47
2024-04-22T07:13:06.027Z,5.13
2024-04-22T07:18:09.596Z,4.77
2024-04-22T07:23:13.606Z,4.63
2024-04-22T07:28:17.313Z,5.07
2024-04-22T07:33:21.301Z,4.20
2024-04-22T07:38:32.105Z,4.20
2024-04-22T07:43:35.662Z,3.77
2024-04-22T07:48:39.140Z,3.80
2024-04-22T07:53:43.358Z,5.40
2024-04-22T07:58:47.704Z,4.55
2024-04-22T08:03:52.031Z,5.20
2024-04-22T08:08:55.461Z,5.37
2024-04-22T08:13:58.785Z,4.43
2024-04-22T08:19:02.135Z,3.93
2024-04-22T08:24:05.987Z,3.30
2024-04-22T08:29:10.748Z,5.30
2024-04-22T08:34:14.065Z,5.67
2024-04-22T08:39:17.305Z,5.47
2024-04-22T08:44:20.642Z,6.03
2024-04-22T08:49:24.020Z,5.97
2024-04-22T08:54:27.944Z,4.43
2024-04-22T08:59:38.208Z,5.60
2024-04-22T09:04:47.546Z,6.95
2024-04-22T09:10:10.917Z,6.57
2024-04-22T09:15:16.854Z,5.90
2024-04-22T09:20:21.613Z,5.68
2024-04-22T09:25:25.814Z,4.57
2024-04-22T09:30:32.278Z,4.55
2024-04-22T09:35:37.830Z,5.13
2024-04-22T09:40:42.504Z,4.20
2024-04-22T09:45:47.111Z,3.58
2024-04-22T09:50:50.804Z,3.33
2024-04-22T09:56:04.496Z,3.65
2024-04-22T10:01:08.134Z,3.33
2024-04-22T10:06:13.141Z,3.65
2024-04-22T10:11:16.756Z,3.00
2024-04-22T10:16:20.475Z,4.47
2024-04-22T10:21:24.137Z,4.10
2024-04-22T10:26:27.408Z,2.63
2024-04-22T10:31:33.101Z,3.05
2024-04-22T10:36:36.431Z,2.60
2024-04-22T10:41:40.323Z,2.50
2024-04-22T10:46:43.615Z,3.45
2024-04-22T10:51:46.884Z,2.47
2024-04-22T10:56:51.412Z,2.72
2024-04-22T11:01:54.887Z,2.80
2024-04-22T11:06:58.271Z,2.57
2024-04-22T11:12:03.345Z,3.05
2024-04-22T11:17:08.040Z,2.67
2024-04-22T11:22:11.562Z,2.17
2024-04-22T11:27:15.671Z,2.47
2024-04-22T11:32:19.102Z,2.27
2024-04-22T11:37:22.427Z,2.65
2024-04-22T11:42:25.786Z,2.83
2024-04-22T11:47:29.192Z,2.72
2024-04-22T11:52:32.733Z,2.22
2024-04-22T11:57:35.936Z,2.90
2024-04-22T12:02:39.555Z,2.40
2024-04-22T12:07:45.891Z,2.77
2024-04-22T12:12:49.177Z,2.45
2024-04-22T12:17:52.412Z,2.30
2024-04-22T12:22:57.669Z,2.60
2024-04-22T12:28:09.828Z,2.53
2024-04-22T12:33:17.480Z,2.33
2024-04-22T12:38:20.836Z,2.95
2024-04-22T12:43:24.180Z,2.40
2024-04-22T12:48:46.484Z,2.27
2024-04-22T12:53:50.156Z,2.65
2024-04-22T12:58:53.578Z,2.80
2024-04-22T13:03:56.944Z,2.47
2024-04-22T13:09:02.562Z,2.60
2024-04-22T13:14:09.113Z,2.90
2024-04-22T13:19:12.480Z,2.80
2024-04-22T13:24:15.922Z,2.77
2024-04-22T13:29:19.307Z,2.83
2024-04-22T13:34:22.931Z,3.10
2024-04-22T13:39:26.491Z,2.70
2024-04-22T13:44:29.794Z,2.50
2024-04-22T13:49:33.179Z,1.50
2024-04-22T13:54:36.771Z,3.25
2024-04-22T13:59:40.166Z,3.00
2024-04-22T14:04:43.567Z,2.97
2024-04-22T14:09:47.435Z,3.40
2024-04-22T14:14:50.884Z,3.43
2024-04-22T14:19:54.287Z,2.72
2024-04-22T14:24:58.171Z,3.40
2024-04-22T14:30:01.475Z,2.83
2024-04-22T14:35:05.263Z,2.78
2024-04-22T14:40:09.473Z,3.20
2024-04-22T14:45:13.412Z,2.45
2024-04-22T14:50:17.082Z,2.85
2024-04-22T14:55:21.503Z,3.00
2024-04-22T15:00:25.038Z,3.00
2024-04-22T15:05:30.668Z,3.13
2024-04-22T15:10:34.028Z,2.83
2024-04-22T15:15:37.298Z,4.05
2024-04-22T15:20:40.620Z,2.80
2024-04-22T15:25:44.126Z,3.33
2024-04-22T15:30:47.527Z,3.17
2024-04-22T15:35:51.003Z,3.08
2024-04-22T15:40:56.585Z,3.20
2024-04-22T15:45:59.958Z,3.20
2024-04-22T15:51:03.469Z,3.25
2024-04-22T15:56:07.219Z,3.23
2024-04-22T16:01:10.804Z,3.55
2024-04-22T16:06:14.559Z,3.25
2024-04-22T16:11:18.029Z,3.43
2024-04-22T16:16:21.860Z,3.45
2024-04-22T16:21:25.354Z,3.27
2024-04-22T16:26:28.752Z,3.30
2024-04-22T16:31:32.236Z,3.45
2024-04-22T16:36:35.865Z,3.07
2024-04-22T16:41:39.457Z,3.40
2024-04-22T16:46:43.082Z,3.13
2024-04-22T16:51:46.708Z,3.50
2024-04-22T16:56:50.579Z,3.40
2024-04-22T17:01:54.218Z,3.10
2024-04-22T17:06:57.581Z,3.53
2024-04-22T17:12:00.794Z,3.70
2024-04-22T17:17:07.436Z,3.25
2024-04-22T17:22:11.743Z,3.50
2024-04-22T17:27:15.037Z,3.13
2024-04-22T17:32:18.668Z,3.78
2024-04-22T17:37:22.320Z,3.77
2024-04-22T17:42:25.962Z,4.20
2024-04-22T17:47:29.574Z,4.65
2024-04-22T17:52:32.888Z,4.03
2024-04-22T17:57:36.248Z,4.20
2024-04-22T18:02:42.792Z,4.13
2024-04-22T18:07:46.164Z,3.97
2024-04-22T18:12:49.588Z,4.80
2024-04-22T18:17:52.984Z,6.60
2024-04-22T18:22:56.462Z,7.90
2024-04-22T18:27:59.784Z,8.77
2024-04-22T18:33:03.684Z,8.55
2024-04-22T18:38:07.158Z,11.23
2024-04-22T18:43:10.785Z,5.20
2024-04-22T18:48:14.383Z,5.03
2024-04-22T18:53:18.028Z,5.33
2024-04-22T18:58:21.592Z,5.40
2024-04-22T19:03:25.406Z,4.72
2024-04-22T19:08:28.813Z,4.43
2024-04-22T19:13:32.211Z,4.72
2024-04-22T19:18:35.483Z,4.47
2024-04-22T19:23:39.058Z,5.53
2024-04-22T19:28:42.471Z,4.25
2024-04-22T19:33:45.765Z,5.40
2024-04-22T19:38:49.416Z,4.28
2024-04-22T19:43:53.274Z,4.20
2024-04-22T19:48:56.872Z,4.60
2024-04-22T19:54:00.182Z,4.25
2024-04-22T19:59:03.534Z,4.77
2024-04-22T20:04:07.038Z,4.18
2024-04-22T20:09:10.568Z,4.47
2024-04-22T20:14:15.079Z,4.65
2024-04-22T20:19:19.801Z,4.57
2024-04-22T20:24:23.408Z,4.53
2024-04-22T20:29:27.140Z,4.90
2024-04-22T20:34:30.508Z,4.53
2024-04-22T20:39:33.857Z,2.92
2024-04-22T20:44:37.380Z,3.67
2024-04-22T20:49:40.667Z,3.80
2024-04-22T20:54:44.434Z,5.35
2024-04-22T20:59:47.856Z,4.40
2024-04-22T21:04:51.401Z,3.58
2024-04-22T21:09:54.979Z,4.30
2024-04-22T21:15:00.221Z,3.10
2024-04-22T21:20:04.144Z,4.53
2024-04-22T21:25:07.827Z,3.80
2024-04-22T21:30:11.591Z,3.10
2024-04-22T21:35:15.113Z,4.25
2024-04-22T21:40:18.771Z,3.70
2024-04-22T21:45:22.157Z,4.28
2024-04-22T21:50:26.495Z,4.77
2024-04-22T21:55:50.216Z,4.28
2024-04-22T22:01:30.988Z,4.00
2024-04-22T22:07:11.834Z,4.73
2024-04-22T22:12:21.613Z,4.78
2024-04-22T22:17:27.391Z,4.80
2024-04-22T22:22:31.044Z,4.80
2024-04-22T22:27:34.571Z,4.63
2024-04-22T22:32:38.222Z,5.30
2024-04-22T22:37:41.530Z,5.43
2024-04-22T22:42:50.304Z,4.43
2024-04-22T22:47:54.295Z,5.35
2024-04-22T22:52:57.783Z,6.30
2024-04-22T22:58:01.562Z,5.83
2024-04-22T23:03:04.911Z,4.68
2024-04-22T23:08:08.932Z,4.73
2024-04-22T23:13:12.854Z,5.30
2024-04-22T23:18:16.334Z,4.68
2024-04-22T23:23:20.296Z,4.50
2024-04-22T23:28:23.780Z,4.75
2024-04-22T23:33:27.230Z,4.43
2024-04-22T23:38:30.707Z,4.22
2024-04-22T23:43:34.116Z,4.00
2024-04-22T23:48:37.559Z,3.30
2024-04-22T23:53:41.193Z,5.10
2024-04-22T23:58:44.735Z,3.57
